Inman, KS

11:35 AM CDT on October 24, 2014 (GMT -0500)
South McPherson | Change Station
CLOSE
Current Station
Personal Weather Station
Location: McPherson, KS
Elevation: 1493 ft
Nearby Weather Stations

Elev 1493 ft 38.35 °N, 97.67 °W | Updated 8 minutes ago

Mostly Cloudy
Mostly Cloudy
64.0 °F
Feels Like 64.0 °F
N
5.0
Wind Variable Wind from North

Today
High -- | Low -- °F
--% Chance of Precip.
Yesterday
High -- | Low -- °F
Precip. -- in
7:48 AM 6:41 PM
New Moon, 1% visible
Pressure 30.03 in
Visibility 5.0 miles
Clouds Few 500 ft
Dew Point 64 °F
Humidity 100%
Rainfall 0.00 in
Snow Depth Not available.
UV 3 out of 12
Pollen 3.60 out of 12
Air Quality Not available.
Flu Activity No Activity
METAR KHUT 241552Z 19007KT 5SM BR FEW005 18/16 A3006 RMK AO2 SLP167 T01780156

More Conditions Fewer Conditions

Pressure 30.03 in
Visibility 5.0 miles
Clouds Few 500 ft
Dew Point 64 °F
Humidity 100%
Rainfall 0.00 in
Snow Depth Not available.
UV 3 out of 12
Pollen 3.60 out of 12
Air Quality Not available.
Flu Activity No Activity
METAR KHUT 241552Z 19007KT 5SM BR FEW005 18/16 A3006 RMK AO2 SLP167 T01780156

More Conditions Fewer Conditions

10-Day Weather Forecast

Almanac

Astronomy

Oct. 24, 2014 Rise Set
Actual Time 7:48 AM CDT 6:41 PM CDT
Civil Twilight 7:21 AM CDT 7:08 PM CDT
Nautical Twilight 6:51 AM CDT 7:38 PM CDT
Astronomical Twilight 6:20 AM CDT 8:09 PM CDT
Moon 8:28 AM CDT 7:22 PM CDT
Length of Visible Light 11h 46m
Length of Day
10h 52m
Tomorrow will be 2m 17s shorter.
New Moon, 1% of the Moon is Illuminated
Today
New Moon
Oct 30
First Quarter
Nov 6
Full
Nov 14
Last Quarter
Nov 22
New

Today's Extremes

State Highs State Lows

Community

WunderPhotos

Upload Photos

1,764,603 photos uploaded!

WunderBlogs® & News

By Dr. Jeff Masters
Director of Meteorology, Weather Underground
By Kari Strenfel
Meteorologist, Weather Underground
By Christopher C. Burt
Weather Historian, Weather Underground
October 24, 2014
October 24, 2014
October 24, 2014

Nearby

Snow Depth

Station Depth Elevation
No new snow has been reported.

Earthquake Activity

City Distance Mag. Time & Date
Anthony, Kansas 81 miles 2.7 4:24 AM CDT
2014-10-24
Medford, Oklahoma 109 miles 3.0 2:06 AM CDT
2014-10-23
Pawnee, Oklahoma 131 miles 2.7 1:06 AM CDT
2014-10-23
Anthony, Kansas 83 miles 2.7 9:47 PM CDT
2014-10-22
Minimum magnitude displayed is 2.5.

Coastal Water Temperatures

Place Temperature
No Stations Reporting

Nearby Weather Stations